sensor_id;sensor_type;location;lat;lon;timestamp;pressure;altitude;pressure_sealevel;temperature;humidity
59487;BME280;45298;54.918;73.504;2024-03-23T00:55:34;100083.28;;;-9.62;77.43
59487;BME280;45298;54.918;73.504;2024-03-23T00:58:02;100072.09;;;-9.66;78.21
59487;BME280;45298;54.918;73.504;2024-03-23T01:00:30;100030.66;;;-9.84;77.84
59487;BME280;45298;54.918;73.504;2024-03-23T01:02:58;100072.19;;;-9.60;77.27
59487;BME280;45298;54.918;73.504;2024-03-23T01:05:26;100068.72;;;-9.63;77.73
59487;BME280;45298;54.918;73.504;2024-03-23T01:08:11;100074.75;;;-9.61;78.35
59487;BME280;45298;54.918;73.504;2024-03-23T01:10:39;100058.31;;;-9.71;77.38
59487;BME280;45298;54.918;73.504;2024-03-23T01:13:09;100061.69;;;-9.72;77.39
59487;BME280;45298;54.918;73.504;2024-03-23T01:15:40;100070.28;;;-9.72;77.94
59487;BME280;45298;54.918;73.504;2024-03-23T01:18:09;100062.69;;;-9.65;77.80
59487;BME280;45298;54.918;73.504;2024-03-23T01:20:37;100066.91;;;-9.67;77.34
59487;BME280;45298;54.918;73.504;2024-03-23T01:23:07;100079.06;;;-9.60;77.58
59487;BME280;45298;54.918;73.504;2024-03-23T01:25:35;100062.75;;;-9.62;78.00
59487;BME280;45298;54.918;73.504;2024-03-23T01:28:03;100045.53;;;-9.68;77.97
59487;BME280;45298;54.918;73.504;2024-03-23T01:30:31;100071.50;;;-9.54;77.76
59487;BME280;45298;54.918;73.504;2024-03-23T01:32:59;100065.44;;;-9.56;76.92
59487;BME280;45298;54.918;73.504;2024-03-23T01:35:27;100054.34;;;-9.55;76.91
59487;BME280;45298;54.918;73.504;2024-03-23T01:37:55;100032.91;;;-9.57;77.64
59487;BME280;45298;54.918;73.504;2024-03-23T01:40:23;100039.94;;;-9.47;77.13
59487;BME280;45298;54.918;73.504;2024-03-23T01:42:57;100052.84;;;-9.44;77.20
59487;BME280;45298;54.918;73.504;2024-03-23T01:45:25;100053.72;;;-9.43;76.95
59487;BME280;45298;54.918;73.504;2024-03-23T01:47:53;100050.28;;;-9.44;77.36
59487;BME280;45298;54.918;73.504;2024-03-23T01:50:21;100079.44;;;-9.42;77.07
59487;BME280;45298;54.918;73.504;2024-03-23T01:53:05;100080.41;;;-9.35;76.97
59487;BME280;45298;54.918;73.504;2024-03-23T01:55:33;100073.59;;;-9.34;77.27
59487;BME280;45298;54.918;73.504;2024-03-23T01:58:05;100070.00;;;-8.40;76.96
59487;BME280;45298;54.918;73.504;2024-03-23T02:00:34;100069.66;;;-7.38;75.49
59487;BME280;45298;54.918;73.504;2024-03-23T02:03:02;100061.78;;;-6.64;73.28
59487;BME280;45298;54.918;73.504;2024-03-23T02:05:49;100069.16;;;-5.90;72.65
59487;BME280;45298;54.918;73.504;2024-03-23T02:08:18;100071.09;;;-5.35;72.13
59487;BME280;45298;54.918;73.504;2024-03-23T02:10:48;100057.41;;;-4.89;70.93
59487;BME280;45298;54.918;73.504;2024-03-23T02:13:18;100054.84;;;-4.57;70.70
59487;BME280;45298;54.918;73.504;2024-03-23T02:15:46;100052.28;;;-4.33;70.52
59487;BME280;45298;54.918;73.504;2024-03-23T02:18:13;100060.00;;;-4.07;70.79
59487;BME280;45298;54.918;73.504;2024-03-23T02:20:41;100061.66;;;-3.83;70.71
59487;BME280;45298;54.918;73.504;2024-03-23T02:23:16;100059.00;;;-3.64;70.08
59487;BME280;45298;54.918;73.504;2024-03-23T02:25:57;100064.97;;;-3.40;70.45
59487;BME280;45298;54.918;73.504;2024-03-23T02:28:26;100046.78;;;-3.29;70.22
59487;BME280;45298;54.918;73.504;2024-03-23T02:30:54;100077.66;;;-2.91;69.64
59487;BME280;45298;54.918;73.504;2024-03-23T02:33:22;100071.53;;;-2.79;68.79
59487;BME280;45298;54.918;73.504;2024-03-23T02:35:55;100077.75;;;-3.03;69.12
59487;BME280;45298;54.918;73.504;2024-03-23T02:38:26;100078.66;;;-3.13;69.74
59487;BME280;45298;54.918;73.504;2024-03-23T02:40:54;100082.97;;;-3.12;70.04
59487;BME280;45298;54.918;73.504;2024-03-23T02:43:22;100075.16;;;-3.00;70.29
59487;BME280;45298;54.918;73.504;2024-03-23T02:45:49;100073.50;;;-3.18;69.71
59487;BME280;45298;54.918;73.504;2024-03-23T02:48:17;100080.41;;;-3.17;69.35
59487;BME280;45298;54.918;73.504;2024-03-23T02:50:48;100085.63;;;-3.23;68.95
59487;BME280;45298;54.918;73.504;2024-03-23T02:53:16;100066.47;;;-2.97;68.45
59487;BME280;45298;54.918;73.504;2024-03-23T02:55:44;100071.44;;;-2.62;67.78
59487;BME280;45298;54.918;73.504;2024-03-23T02:58:12;100077.03;;;-2.10;66.46
59487;BME280;45298;54.918;73.504;2024-03-23T03:00:43;100089.28;;;-2.21;66.25
59487;BME280;45298;54.918;73.504;2024-03-23T03:03:11;100055.94;;;-2.76;66.88
59487;BME280;45298;54.918;73.504;2024-03-23T03:06:01;100077.88;;;-3.28;68.03
59487;BME280;45298;54.918;73.504;2024-03-23T03:08:30;100087.50;;;-3.53;67.99
59487;BME280;45298;54.918;73.504;2024-03-23T03:10:58;100072.00;;;-3.78;69.32
59487;BME280;45298;54.918;73.504;2024-03-23T03:13:25;100072.97;;;-4.18;68.96
59487;BME280;45298;54.918;73.504;2024-03-23T03:15:53;100072.13;;;-4.28;70.72
59487;BME280;45298;54.918;73.504;2024-03-23T03:18:23;100065.22;;;-4.38;70.56
59487;BME280;45298;54.918;73.504;2024-03-23T03:20:54;100068.69;;;-4.45;70.83
59487;BME280;45298;54.918;73.504;2024-03-23T03:23:22;100054.88;;;-4.58;70.13
59487;BME280;45298;54.918;73.504;2024-03-23T03:25:50;100060.03;;;-4.67;70.55
59487;BME280;45298;54.918;73.504;2024-03-23T03:28:18;100060.91;;;-4.70;70.98
59487;BME280;45298;54.918;73.504;2024-03-23T03:30:46;100060.03;;;-4.75;71.08
59487;BME280;45298;54.918;73.504;2024-03-23T03:33:14;100065.19;;;-4.75;70.45
59487;BME280;45298;54.918;73.504;2024-03-23T03:35:42;100056.56;;;-4.77;70.89
59487;BME280;45298;54.918;73.504;2024-03-23T03:38:10;100055.72;;;-4.78;70.93
59487;BME280;45298;54.918;73.504;2024-03-23T03:40:38;100058.31;;;-4.72;70.80
59487;BME280;45298;54.918;73.504;2024-03-23T03:43:06;100047.09;;;-4.67;71.18
59487;BME280;45298;54.918;73.504;2024-03-23T03:45:34;100045.38;;;-4.41;71.25
59487;BME280;45298;54.918;73.504;2024-03-23T03:48:02;100030.72;;;-4.43;71.33
59487;BME280;45298;54.918;73.504;2024-03-23T03:50:30;100055.69;;;-4.16;70.74
59487;BME280;45298;54.918;73.504;2024-03-23T03:52:58;100030.66;;;-4.15;70.60
59487;BME280;45298;54.918;73.504;2024-03-23T03:55:26;100058.22;;;-3.88;69.82
59487;BME280;45298;54.918;73.504;2024-03-23T03:57:55;100064.22;;;-3.75;70.18
59487;BME280;45298;54.918;73.504;2024-03-23T04:00:23;100074.53;;;-3.53;70.66
59487;BME280;45298;54.918;73.504;2024-03-23T04:02:51;100066.69;;;-3.38;70.29
59487;BME280;45298;54.918;73.504;2024-03-23T04:05:19;100064.94;;;-3.36;69.66
59487;BME280;45298;54.918;73.504;2024-03-23T04:07:49;100070.06;;;-3.22;69.53
59487;BME280;45298;54.918;73.504;2024-03-23T04:10:17;100069.13;;;-3.08;70.03
59487;BME280;45298;54.918;73.504;2024-03-23T04:12:45;100075.03;;;-2.83;69.76
59487;BME280;45298;54.918;73.504;2024-03-23T04:15:13;100079.25;;;-2.68;69.20
59487;BME280;45298;54.918;73.504;2024-03-23T04:17:41;100069.75;;;-2.72;68.76
59487;BME280;45298;54.918;73.504;2024-03-23T04:20:10;100078.31;;;-2.56;69.66
59487;BME280;45298;54.918;73.504;2024-03-23T04:22:40;100068.69;;;-2.43;69.70
59487;BME280;45298;54.918;73.504;2024-03-23T04:25:11;100056.63;;;-2.52;69.20
59487;BME280;45298;54.918;73.504;2024-03-23T04:27:39;100070.44;;;-2.48;68.86
59487;BME280;45298;54.918;73.504;2024-03-23T04:30:10;100064.28;;;-2.36;69.11
59487;BME280;45298;54.918;73.504;2024-03-23T04:32:39;100059.94;;;-2.34;69.10
59487;BME280;45298;54.918;73.504;2024-03-23T04:35:10;100052.19;;;-2.37;69.20
59487;BME280;45298;54.918;73.504;2024-03-23T04:37:41;100067.66;;;-2.23;69.30
59487;BME280;45298;54.918;73.504;2024-03-23T04:40:09;100041.78;;;-2.37;69.19
59487;BME280;45298;54.918;73.504;2024-03-23T04:42:38;100064.25;;;-2.30;68.80
59487;BME280;45298;54.918;73.504;2024-03-23T04:45:06;100071.94;;;-2.19;69.38
59487;BME280;45298;54.918;73.504;2024-03-23T04:47:34;100053.72;;;-2.18;69.17
59487;BME280;45298;54.918;73.504;2024-03-23T04:50:15;100059.69;;;-2.06;69.47
59487;BME280;45298;54.918;73.504;2024-03-23T04:52:43;100073.53;;;-2.03;69.60
59487;BME280;45298;54.918;73.504;2024-03-23T04:55:11;100072.63;;;-2.03;69.65
59487;BME280;45298;54.918;73.504;2024-03-23T04:57:39;100049.25;;;-2.03;70.19
59487;BME280;45298;54.918;73.504;2024-03-23T05:00:07;100025.88;;;-2.05;69.14
59487;BME280;45298;54.918;73.504;2024-03-23T05:02:45;100058.50;;;-1.76;69.44
59487;BME280;45298;54.918;73.504;2024-03-23T05:05:13;100066.97;;;-1.60;69.49
59487;BME280;45298;54.918;73.504;2024-03-23T05:07:41;100061.56;;;-1.40;69.32
59487;BME280;45298;54.918;73.504;2024-03-23T05:10:10;100026.78;;;-1.35;68.86
59487;BME280;45298;54.918;73.504;2024-03-23T05:12:38;100045.56;;;-1.10;68.79
59487;BME280;45298;54.918;73.504;2024-03-23T05:15:09;100053.03;;;-0.87;68.52
59487;BME280;45298;54.918;73.504;2024-03-23T05:17:38;100054.41;;;-0.66;68.50
59487;BME280;45298;54.918;73.504;2024-03-23T05:20:06;100061.13;;;-0.49;68.08
59487;BME280;45298;54.918;73.504;2024-03-23T05:22:37;100054.78;;;-0.33;67.98
59487;BME280;45298;54.918;73.504;2024-03-23T05:25:05;100059.72;;;-0.17;67.82
59487;BME280;45298;54.918;73.504;2024-03-23T05:27:33;100039.72;;;-0.17;67.54
59487;BME280;45298;54.918;73.504;2024-03-23T05:30:13;100030.91;;;-0.09;67.42
59487;BME280;45298;54.918;73.504;2024-03-23T05:32:41;100053.88;;;0.19;67.74
59487;BME280;45298;54.918;73.504;2024-03-23T05:35:10;100051.75;;;0.38;66.98
59487;BME280;45298;54.918;73.504;2024-03-23T05:37:37;100062.78;;;0.51;67.29
59487;BME280;45298;54.918;73.504;2024-03-23T05:40:06;100057.34;;;0.62;67.31
59487;BME280;45298;54.918;73.504;2024-03-23T05:42:36;100048.47;;;0.69;66.84
59487;BME280;45298;54.918;73.504;2024-03-23T05:45:04;100040.47;;;0.78;66.58
59487;BME280;45298;54.918;73.504;2024-03-23T05:47:34;100039.28;;;0.92;67.21
59487;BME280;45298;54.918;73.504;2024-03-23T05:50:14;100064.75;;;1.21;66.40
59487;BME280;45298;54.918;73.504;2024-03-23T05:52:46;100060.19;;;1.31;66.57
59487;BME280;45298;54.918;73.504;2024-03-23T05:55:14;100041.69;;;1.39;66.30
59487;BME280;45298;54.918;73.504;2024-03-23T05:57:42;100048.56;;;1.44;65.93
59487;BME280;45298;54.918;73.504;2024-03-23T06:00:10;100037.09;;;1.48;66.33
59487;BME280;45298;54.918;73.504;2024-03-23T06:02:43;100047.19;;;1.64;66.11
59487;BME280;45298;54.918;73.504;2024-03-23T06:05:14;100055.66;;;1.74;66.12
59487;BME280;45298;54.918;73.504;2024-03-23T06:07:42;100052.31;;;1.69;66.02
59487;BME280;45298;54.918;73.504;2024-03-23T06:10:10;100027.28;;;1.58;65.93
59487;BME280;45298;54.918;73.504;2024-03-23T06:12:38;100045.84;;;1.82;65.38
59487;BME280;45298;54.918;73.504;2024-03-23T06:15:06;100057.22;;;1.81;65.71
59487;BME280;45298;54.918;73.504;2024-03-23T06:17:37;100045.69;;;1.88;65.71
59487;BME280;45298;54.918;73.504;2024-03-23T06:20:09;100062.78;;;2.02;65.73
59487;BME280;45298;54.918;73.504;2024-03-23T06:22:37;100058.50;;;1.99;65.32
59487;BME280;45298;54.918;73.504;2024-03-23T06:25:06;100049.75;;;2.00;65.16
59487;BME280;45298;54.918;73.504;2024-03-23T06:27:34;100046.06;;;2.07;65.46
59487;BME280;45298;54.918;73.504;2024-03-23T06:30:14;100063.94;;;2.24;65.26
59487;BME280;45298;54.918;73.504;2024-03-23T06:32:54;100053.00;;;2.41;65.46
59487;BME280;45298;54.918;73.504;2024-03-23T06:35:23;100055.34;;;2.51;64.64
59487;BME280;45298;54.918;73.504;2024-03-23T06:37:50;100059.69;;;2.52;64.93
59487;BME280;45298;54.918;73.504;2024-03-23T06:40:18;100062.44;;;2.47;64.52
59487;BME280;45298;54.918;73.504;2024-03-23T06:42:46;100050.09;;;2.51;63.84
59487;BME280;45298;54.918;73.504;2024-03-23T06:45:16;100056.97;;;2.55;63.95
59487;BME280;45298;54.918;73.504;2024-03-23T06:47:47;100063.47;;;2.71;64.34
59487;BME280;45298;54.918;73.504;2024-03-23T06:50:15;100057.91;;;2.84;64.30
59487;BME280;45298;54.918;73.504;2024-03-23T06:52:43;100054.06;;;2.94;63.63
59487;BME280;45298;54.918;73.504;2024-03-23T06:55:11;100061.88;;;2.96;64.03
59487;BME280;45298;54.918;73.504;2024-03-23T06:57:39;100053.69;;;3.07;64.12
59487;BME280;45298;54.918;73.504;2024-03-23T07:00:07;100039.91;;;3.01;63.65
59487;BME280;45298;54.918;73.504;2024-03-23T07:02:37;100045.81;;;3.08;63.83
59487;BME280;45298;54.918;73.504;2024-03-23T07:05:06;100053.09;;;2.98;63.39
59487;BME280;45298;54.918;73.504;2024-03-23T07:07:34;100050.47;;;2.98;63.69
59487;BME280;45298;54.918;73.504;2024-03-23T07:10:02;100046.66;;;3.09;63.86
59487;BME280;45298;54.918;73.504;2024-03-23T07:12:30;100047.28;;;3.17;63.21
59487;BME280;45298;54.918;73.504;2024-03-23T07:15:09;100050.06;;;3.11;63.23
59487;BME280;45298;54.918;73.504;2024-03-23T07:17:37;100050.38;;;3.01;63.72
59487;BME280;45298;54.918;73.504;2024-03-23T07:20:05;100046.84;;;3.02;63.23
59487;BME280;45298;54.918;73.504;2024-03-23T07:22:37;100040.16;;;2.92;63.64
59487;BME280;45298;54.918;73.504;2024-03-23T07:25:06;100046.97;;;2.98;63.41
59487;BME280;45298;54.918;73.504;2024-03-23T07:27:45;100049.81;;;2.92;62.66
59487;BME280;45298;54.918;73.504;2024-03-23T07:30:15;100045.63;;;2.84;62.55
59487;BME280;45298;54.918;73.504;2024-03-23T07:32:46;100031.56;;;2.89;62.96
59487;BME280;45298;54.918;73.504;2024-03-23T07:35:15;100038.34;;;2.94;62.81
59487;BME280;45298;54.918;73.504;2024-03-23T07:37:43;100029.78;;;2.89;62.67
59487;BME280;45298;54.918;73.504;2024-03-23T07:40:11;100048.75;;;2.97;62.73
59487;BME280;45298;54.918;73.504;2024-03-23T07:42:39;100023.59;;;2.62;62.59
59487;BME280;45298;54.918;73.504;2024-03-23T07:45:07;100051.03;;;2.80;62.61
59487;BME280;45298;54.918;73.504;2024-03-23T07:47:36;100046.03;;;2.70;62.32
59487;BME280;45298;54.918;73.504;2024-03-23T07:50:05;100044.25;;;2.72;61.99
59487;BME280;45298;54.918;73.504;2024-03-23T07:52:33;100038.19;;;2.70;62.32
59487;BME280;45298;54.918;73.504;2024-03-23T07:55:01;100030.53;;;2.64;62.24
59487;BME280;45298;54.918;73.504;2024-03-23T07:57:33;100040.19;;;2.62;62.14
59487;BME280;45298;54.918;73.504;2024-03-23T08:00:01;100040.72;;;2.74;61.96
59487;BME280;45298;54.918;73.504;2024-03-23T08:02:31;100038.78;;;2.80;62.68
59487;BME280;45298;54.918;73.504;2024-03-23T08:04:59;100038.16;;;2.72;62.43
59487;BME280;45298;54.918;73.504;2024-03-23T08:07:27;100035.78;;;2.64;62.27
59487;BME280;45298;54.918;73.504;2024-03-23T08:09:56;100033.75;;;2.74;62.77
59487;BME280;45298;54.918;73.504;2024-03-23T08:12:23;100029.03;;;2.85;62.52
59487;BME280;45298;54.918;73.504;2024-03-23T08:14:54;100031.34;;;2.95;62.18
59487;BME280;45298;54.918;73.504;2024-03-23T08:17:23;100022.16;;;2.81;61.99
59487;BME280;45298;54.918;73.504;2024-03-23T08:19:50;100023.28;;;2.72;62.13
59487;BME280;45298;54.918;73.504;2024-03-23T08:22:20;100020.06;;;2.64;62.47
59487;BME280;45298;54.918;73.504;2024-03-23T08:24:47;100008.94;;;2.56;62.59
59487;BME280;45298;54.918;73.504;2024-03-23T08:27:15;100027.09;;;2.62;62.58
59487;BME280;45298;54.918;73.504;2024-03-23T08:29:45;100027.09;;;2.62;62.17
59487;BME280;45298;54.918;73.504;2024-03-23T08:32:13;100025.28;;;2.64;62.22
59487;BME280;45298;54.918;73.504;2024-03-23T08:34:41;100035.13;;;2.56;62.32
59487;BME280;45298;54.918;73.504;2024-03-23T08:37:09;100020.06;;;2.64;62.73
59487;BME280;45298;54.918;73.504;2024-03-23T08:39:37;100007.56;;;2.72;62.50
59487;BME280;45298;54.918;73.504;2024-03-23T08:42:05;99999.63;;;2.76;62.31
59487;BME280;45298;54.918;73.504;2024-03-23T08:44:34;100012.34;;;2.88;61.62
59487;BME280;45298;54.918;73.504;2024-03-23T08:47:02;100003.56;;;2.89;61.79
59487;BME280;45298;54.918;73.504;2024-03-23T08:49:30;100008.44;;;3.01;61.85
59487;BME280;45298;54.918;73.504;2024-03-23T08:52:01;99998.91;;;2.99;61.23
59487;BME280;45298;54.918;73.504;2024-03-23T08:54:36;99998.25;;;2.92;61.48
59487;BME280;45298;54.918;73.504;2024-03-23T08:57:04;99994.06;;;2.86;62.42
59487;BME280;45298;54.918;73.504;2024-03-23T08:59:33;99989.88;;;2.81;62.18
59487;BME280;45298;54.918;73.504;2024-03-23T09:02:01;99989.97;;;2.78;61.57
59487;BME280;45298;54.918;73.504;2024-03-23T09:04:29;99995.75;;;2.59;62.34
59487;BME280;45298;54.918;73.504;2024-03-23T09:06:58;99991.50;;;2.55;62.63
59487;BME280;45298;54.918;73.504;2024-03-23T09:09:27;99991.16;;;2.37;62.69
59487;BME280;45298;54.918;73.504;2024-03-23T09:11:55;100006.72;;;2.42;62.87
59487;BME280;45298;54.918;73.504;2024-03-23T09:14:23;100001.25;;;2.50;62.49
59487;BME280;45298;54.918;73.504;2024-03-23T09:16:51;99996.81;;;2.53;63.03
59487;BME280;45298;54.918;73.504;2024-03-23T09:19:19;99991.59;;;2.52;62.55
59487;BME280;45298;54.918;73.504;2024-03-23T09:21:47;100001.31;;;2.48;62.46
59487;BME280;45298;54.918;73.504;2024-03-23T09:24:16;99997.81;;;2.48;63.20
59487;BME280;45298;54.918;73.504;2024-03-23T09:26:44;99995.22;;;2.48;63.08
59487;BME280;45298;54.918;73.504;2024-03-23T09:29:12;99959.31;;;2.23;62.75
59487;BME280;45298;54.918;73.504;2024-03-23T09:31:40;99984.19;;;2.36;62.58
59487;BME280;45298;54.918;73.504;2024-03-23T09:34:08;99992.13;;;2.33;63.00
59487;BME280;45298;54.918;73.504;2024-03-23T09:36:36;99993.13;;;2.29;63.20
59487;BME280;45298;54.918;73.504;2024-03-23T09:39:04;99992.28;;;2.29;63.24
59487;BME280;45298;54.918;73.504;2024-03-23T09:41:33;99977.78;;;2.17;62.58
59487;BME280;45298;54.918;73.504;2024-03-23T09:44:02;99989.16;;;2.16;62.97
59487;BME280;45298;54.918;73.504;2024-03-23T09:46:30;99973.97;;;1.97;63.32
59487;BME280;45298;54.918;73.504;2024-03-23T09:49:02;99981.66;;;2.03;63.21
59487;BME280;45298;54.918;73.504;2024-03-23T09:51:32;99979.13;;;2.00;63.61
59487;BME280;45298;54.918;73.504;2024-03-23T09:54:00;99983.31;;;2.06;63.64
59487;BME280;45298;54.918;73.504;2024-03-23T09:56:28;99980.09;;;1.96;63.57
59487;BME280;45298;54.918;73.504;2024-03-23T09:59:02;99979.28;;;1.94;63.76
59487;BME280;45298;54.918;73.504;2024-03-23T10:01:33;99921.94;;;1.55;63.99
59487;BME280;45298;54.918;73.504;2024-03-23T10:04:02;99983.47;;;2.00;63.54
59487;BME280;45298;54.918;73.504;2024-03-23T10:06:30;99970.66;;;1.90;63.94
59487;BME280;45298;54.918;73.504;2024-03-23T10:08:58;99983.69;;;1.92;64.12
59487;BME280;45298;54.918;73.504;2024-03-23T10:11:26;99978.69;;;1.84;63.94
59487;BME280;45298;54.918;73.504;2024-03-23T10:13:56;99972.69;;;1.80;63.66
59487;BME280;45298;54.918;73.504;2024-03-23T10:16:25;99959.91;;;1.68;62.96
59487;BME280;45298;54.918;73.504;2024-03-23T10:18:54;99942.84;;;1.55;63.71
59487;BME280;45298;54.918;73.504;2024-03-23T10:21:22;99952.47;;;1.54;63.86
59487;BME280;45298;54.918;73.504;2024-03-23T10:23:50;99964.81;;;1.47;63.57
59487;BME280;45298;54.918;73.504;2024-03-23T10:26:19;99966.53;;;1.48;63.57
59487;BME280;45298;54.918;73.504;2024-03-23T10:31:20;99965.00;;;1.40;63.96
59487;BME280;45298;54.918;73.504;2024-03-23T10:33:49;99957.38;;;1.32;64.15
59487;BME280;45298;54.918;73.504;2024-03-23T10:36:18;99958.38;;;1.26;63.64
59487;BME280;45298;54.918;73.504;2024-03-23T10:38:49;99966.34;;;1.22;63.85
59487;BME280;45298;54.918;73.504;2024-03-23T10:41:18;99955.19;;;1.15;64.52
59487;BME280;45298;54.918;73.504;2024-03-23T10:43:48;99953.53;;;1.11;64.51
59487;BME280;45298;54.918;73.504;2024-03-23T10:46:16;99940.69;;;1.01;64.51
59487;BME280;45298;54.918;73.504;2024-03-23T10:48:45;99945.03;;;1.02;64.62
59487;BME280;45298;54.918;73.504;2024-03-23T10:51:14;99942.41;;;1.04;64.77
59487;BME280;45298;54.918;73.504;2024-03-23T10:53:42;99928.66;;;0.96;64.76
59487;BME280;45298;54.918;73.504;2024-03-23T10:56:10;99937.31;;;0.98;65.08
59487;BME280;45298;54.918;73.504;2024-03-23T10:58:46;99928.72;;;0.93;65.04
59487;BME280;45298;54.918;73.504;2024-03-23T11:01:16;99906.41;;;0.79;64.90
59487;BME280;45298;54.918;73.504;2024-03-23T11:03:46;99937.31;;;0.98;65.26
59487;BME280;45298;54.918;73.504;2024-03-23T11:06:37;99939.22;;;0.91;64.85
59487;BME280;45298;54.918;73.504;2024-03-23T11:14:58;99922.91;;;0.81;65.52
59487;BME280;45298;54.918;73.504;2024-03-23T11:17:27;99931.75;;;0.75;65.31
59487;BME280;45298;54.918;73.504;2024-03-23T11:20:04;99914.31;;;0.78;65.27
59487;BME280;45298;54.918;73.504;2024-03-23T11:25:22;99915.28;;;0.72;65.81
59487;BME280;45298;54.918;73.504;2024-03-23T11:27:51;99920.47;;;0.73;65.76
59487;BME280;45298;54.918;73.504;2024-03-23T11:30:26;99921.44;;;0.69;65.45
59487;BME280;45298;54.918;73.504;2024-03-23T11:32:56;99910.34;;;0.59;65.82
59487;BME280;45298;54.918;73.504;2024-03-23T11:35:37;99901.84;;;0.51;65.80
59487;BME280;45298;54.918;73.504;2024-03-23T11:38:17;99914.88;;;0.51;66.02
59487;BME280;45298;54.918;73.504;2024-03-23T11:40:49;99916.66;;;0.51;66.24
59487;BME280;45298;54.918;73.504;2024-03-23T11:43:18;99898.63;;;0.40;66.27
59487;BME280;45298;54.918;73.504;2024-03-23T11:45:49;99923.72;;;0.45;66.36
59487;BME280;45298;54.918;73.504;2024-03-23T11:48:23;99906.69;;;0.29;66.44
59487;BME280;45298;54.918;73.504;2024-03-23T11:50:54;99913.63;;;0.30;66.53
59487;BME280;45298;54.918;73.504;2024-03-23T11:53:25;99906.88;;;0.20;66.63
59487;BME280;45298;54.918;73.504;2024-03-23T11:55:59;99912.19;;;0.17;66.87
59487;BME280;45298;54.918;73.504;2024-03-23T11:58:29;99913.09;;;0.14;66.48
59487;BME280;45298;54.918;73.504;2024-03-23T12:03:26;99897.81;;;-0.05;66.70
59487;BME280;45298;54.918;73.504;2024-03-23T12:06:08;99889.50;;;-0.22;67.48
59487;BME280;45298;54.918;73.504;2024-03-23T12:08:36;99904.13;;;-0.15;67.29
59487;BME280;45298;54.918;73.504;2024-03-23T12:11:10;99904.25;;;-0.21;67.40
59487;BME280;45298;54.918;73.504;2024-03-23T12:13:59;99912.19;;;-0.27;67.51
59487;BME280;45298;54.918;73.504;2024-03-23T12:16:45;99905.44;;;-0.38;67.44
59487;BME280;45298;54.918;73.504;2024-03-23T12:19:27;99902.31;;;-0.55;67.47
59487;BME280;45298;54.918;73.504;2024-03-23T12:21:55;99901.47;;;-0.57;67.49
59487;BME280;45298;54.918;73.504;2024-03-23T12:24:23;99895.53;;;-0.64;67.13
59487;BME280;45298;54.918;73.504;2024-03-23T12:26:52;99889.56;;;-0.72;67.75
59487;BME280;45298;54.918;73.504;2024-03-23T12:29:33;99900.03;;;-0.76;67.83
59487;BME280;45298;54.918;73.504;2024-03-23T12:32:02;99899.44;;;-0.88;67.68
59487;BME280;45298;54.918;73.504;2024-03-23T12:34:48;99899.53;;;-0.95;67.41
59487;BME280;45298;54.918;73.504;2024-03-23T12:37:16;99895.25;;;-0.99;67.99
59487;BME280;45298;54.918;73.504;2024-03-23T12:39:45;99904.06;;;-1.08;67.82
59487;BME280;45298;54.918;73.504;2024-03-23T12:42:13;99890.25;;;-1.13;68.05
59487;BME280;45298;54.918;73.504;2024-03-23T12:44:42;99895.59;;;-1.19;68.22
59487;BME280;45298;54.918;73.504;2024-03-23T12:47:10;99888.78;;;-1.28;67.90
59487;BME280;45298;54.918;73.504;2024-03-23T12:49:38;99892.28;;;-1.29;68.12
59487;BME280;45298;54.918;73.504;2024-03-23T12:52:07;99882.91;;;-1.41;68.26
59487;BME280;45298;54.918;73.504;2024-03-23T12:54:36;99891.72;;;-1.49;68.14
59487;BME280;45298;54.918;73.504;2024-03-23T12:57:17;99902.13;;;-1.49;68.32
59487;BME280;45298;54.918;73.504;2024-03-23T12:59:47;99901.41;;;-1.59;68.43
59487;BME280;45298;54.918;73.504;2024-03-23T13:02:22;99891.16;;;-1.70;68.77
59487;BME280;45298;54.918;73.504;2024-03-23T13:04:52;99886.94;;;-1.80;68.82
59487;BME280;45298;54.918;73.504;2024-03-23T13:07:22;99901.63;;;-1.76;69.30
59487;BME280;45298;54.918;73.504;2024-03-23T13:09:53;99895.72;;;-1.88;68.66
59487;BME280;45298;54.918;73.504;2024-03-23T13:12:37;99886.31;;;-1.96;68.92
59487;BME280;45298;54.918;73.504;2024-03-23T13:15:06;99898.41;;;-1.94;68.66
59487;BME280;45298;54.918;73.504;2024-03-23T13:17:34;99834.09;;;-2.47;68.76
59487;BME280;45298;54.918;73.504;2024-03-23T13:20:06;99906.28;;;-2.03;68.97
59487;BME280;45298;54.918;73.504;2024-03-23T13:22:39;99890.88;;;-2.16;69.10
59487;BME280;45298;54.918;73.504;2024-03-23T13:25:07;99895.28;;;-2.24;68.89
59487;BME280;45298;54.918;73.504;2024-03-23T13:27:35;99883.25;;;-2.30;69.05
59487;BME280;45298;54.918;73.504;2024-03-23T13:30:04;99888.47;;;-2.31;69.33
59487;BME280;45298;54.918;73.504;2024-03-23T13:32:44;99885.94;;;-2.37;69.66
59487;BME280;45298;54.918;73.504;2024-03-23T13:35:14;99894.63;;;-2.40;69.65
59487;BME280;45298;54.918;73.504;2024-03-23T13:37:45;99895.53;;;-2.44;69.10
59487;BME280;45298;54.918;73.504;2024-03-23T13:40:15;99889.56;;;-2.51;69.70
59487;BME280;45298;54.918;73.504;2024-03-23T13:42:46;99886.09;;;-2.53;69.78
59487;BME280;45298;54.918;73.504;2024-03-23T13:45:15;99895.69;;;-2.56;69.14
59487;BME280;45298;54.918;73.504;2024-03-23T13:47:43;99880.16;;;-2.64;70.03
59487;BME280;45298;54.918;73.504;2024-03-23T13:50:11;99852.72;;;-2.89;69.82
59487;BME280;45298;54.918;73.504;2024-03-23T13:52:40;99886.31;;;-2.71;69.69
59487;BME280;45298;54.918;73.504;2024-03-23T13:55:08;99885.47;;;-2.75;70.13
59487;BME280;45298;54.918;73.504;2024-03-23T13:57:38;99886.47;;;-2.87;70.11
59487;BME280;45298;54.918;73.504;2024-03-23T14:00:08;99888.19;;;-2.86;70.22
59487;BME280;45298;54.918;73.504;2024-03-23T14:02:39;99881.34;;;-2.95;70.37
59487;BME280;45298;54.918;73.504;2024-03-23T14:05:08;99893.41;;;-2.92;70.26
59487;BME280;45298;54.918;73.504;2024-03-23T14:07:37;99890.88;;;-2.98;70.94
59487;BME280;45298;54.918;73.504;2024-03-23T14:10:05;99886.56;;;-3.03;70.52